sensor_id;sensor_type;location;lat;lon;timestamp;pressure;altitude;pressure_sealevel;temperature;humidity
61554;BME280;47425;51.976;5.326;2023-06-26T00:01:15;101106.47;;;27.97;41.43
61554;BME280;47425;51.976;5.326;2023-06-26T00:04:07;101100.09;;;27.98;41.18
61554;BME280;47425;51.976;5.326;2023-06-26T00:07:05;101104.78;;;27.96;40.82
61554;BME280;47425;51.976;5.326;2023-06-26T00:10:01;101099.66;;;27.93;41.18
61554;BME280;47425;51.976;5.326;2023-06-26T00:12:54;101090.88;;;27.91;41.50
61554;BME280;47425;51.976;5.326;2023-06-26T00:15:45;101097.09;;;27.91;41.23
61554;BME280;47425;51.976;5.326;2023-06-26T00:18:38;101094.28;;;27.93;41.29
61554;BME280;47425;51.976;5.326;2023-06-26T00:21:29;101090.59;;;27.94;41.47
61554;BME280;47425;51.976;5.326;2023-06-26T00:24:22;101081.78;;;27.92;40.64
61554;BME280;47425;51.976;5.326;2023-06-26T00:27:15;101087.19;;;27.92;41.14
61554;BME280;47425;51.976;5.326;2023-06-26T00:29:43;101091.72;;;27.91;41.28
61554;BME280;47425;51.976;5.326;2023-06-26T00:32:35;101086.19;;;27.93;41.30
61554;BME280;47425;51.976;5.326;2023-06-26T00:35:27;101077.00;;;27.86;41.55
61554;BME280;47425;51.976;5.326;2023-06-26T00:38:18;101078.94;;;27.84;41.59
61554;BME280;47425;51.976;5.326;2023-06-26T00:41:12;101072.44;;;27.86;41.18
61554;BME280;47425;51.976;5.326;2023-06-26T00:44:05;101072.31;;;27.88;41.00
61554;BME280;47425;51.976;5.326;2023-06-26T00:46:35;101078.56;;;27.88;41.43
61554;BME280;47425;51.976;5.326;2023-06-26T00:49:27;101078.56;;;27.88;41.29
61554;BME280;47425;51.976;5.326;2023-06-26T00:52:19;101079.69;;;27.86;41.33
61554;BME280;47425;51.976;5.326;2023-06-26T00:55:13;101085.06;;;27.86;41.22
61554;BME280;47425;51.976;5.326;2023-06-26T00:58:06;101088.03;;;27.83;41.25
61554;BME280;47425;51.976;5.326;2023-06-26T01:00:59;101101.19;;;27.76;41.29
61554;BME280;47425;51.976;5.326;2023-06-26T01:03:51;101097.16;;;27.60;41.75
61554;BME280;47425;51.976;5.326;2023-06-26T01:06:46;101105.22;;;27.51;41.85
61554;BME280;47425;51.976;5.326;2023-06-26T01:09:40;101103.13;;;27.33;42.08
61554;BME280;47425;51.976;5.326;2023-06-26T01:12:32;101112.38;;;27.19;42.72
61554;BME280;47425;51.976;5.326;2023-06-26T01:15:27;101102.00;;;27.05;42.27
61554;BME280;47425;51.976;5.326;2023-06-26T01:18:20;101110.84;;;26.95;42.39
61554;BME280;47425;51.976;5.326;2023-06-26T01:21:04;101111.69;;;26.75;42.62
61554;BME280;47425;51.976;5.326;2023-06-26T01:24:02;101113.03;;;26.69;43.69
61554;BME280;47425;51.976;5.326;2023-06-26T01:27:01;101116.22;;;26.74;43.46
61554;BME280;47425;51.976;5.326;2023-06-26T01:30:00;101135.28;;;26.71;43.50
61554;BME280;47425;51.976;5.326;2023-06-26T01:32:54;101143.13;;;26.63;43.36
61554;BME280;47425;51.976;5.326;2023-06-26T01:35:46;101134.25;;;26.51;43.81
61554;BME280;47425;51.976;5.326;2023-06-26T01:38:38;101136.13;;;26.39;44.01
61554;BME280;47425;51.976;5.326;2023-06-26T01:41:32;101145.88;;;26.40;43.94
61554;BME280;47425;51.976;5.326;2023-06-26T01:44:28;101139.06;;;26.36;44.70
61554;BME280;47425;51.976;5.326;2023-06-26T01:47:22;101146.84;;;26.39;44.20
61554;BME280;47425;51.976;5.326;2023-06-26T01:50:18;101141.63;;;26.26;44.41
61554;BME280;47425;51.976;5.326;2023-06-26T01:53:18;101142.03;;;26.22;44.66
61554;BME280;47425;51.976;5.326;2023-06-26T01:55:51;101152.03;;;26.20;45.01
61554;BME280;47425;51.976;5.326;2023-06-26T01:58:46;101148.25;;;26.22;45.20
61554;BME280;47425;51.976;5.326;2023-06-26T02:01:40;101145.78;;;26.30;44.60
61554;BME280;47425;51.976;5.326;2023-06-26T02:04:32;101150.44;;;26.17;45.50
61554;BME280;47425;51.976;5.326;2023-06-26T02:07:24;101149.72;;;26.15;45.65
61554;BME280;47425;51.976;5.326;2023-06-26T02:10:16;101148.09;;;26.24;45.22
61554;BME280;47425;51.976;5.326;2023-06-26T02:13:08;101147.88;;;26.27;45.25
61554;BME280;47425;51.976;5.326;2023-06-26T02:15:59;101140.31;;;26.32;45.04
61554;BME280;47425;51.976;5.326;2023-06-26T02:18:55;101143.56;;;26.36;44.98
61554;BME280;47425;51.976;5.326;2023-06-26T02:21:48;101145.75;;;26.42;44.65
61554;BME280;47425;51.976;5.326;2023-06-26T02:24:40;101141.56;;;26.49;44.52
61554;BME280;47425;51.976;5.326;2023-06-26T02:27:32;101150.69;;;26.58;44.62
61554;BME280;47425;51.976;5.326;2023-06-26T02:30:01;101147.53;;;26.53;45.45
61554;BME280;47425;51.976;5.326;2023-06-26T02:32:53;101149.75;;;26.48;44.86
61554;BME280;47425;51.976;5.326;2023-06-26T02:35:46;101145.22;;;26.48;44.40
61554;BME280;47425;51.976;5.326;2023-06-26T02:38:38;101157.31;;;26.54;44.89
61554;BME280;47425;51.976;5.326;2023-06-26T02:41:30;101158.88;;;26.56;44.63
61554;BME280;47425;51.976;5.326;2023-06-26T02:44:23;101160.22;;;26.62;44.01
61554;BME280;47425;51.976;5.326;2023-06-26T02:46:50;101163.59;;;26.64;44.08
61554;BME280;47425;51.976;5.326;2023-06-26T02:49:44;101164.34;;;26.66;44.65
61554;BME280;47425;51.976;5.326;2023-06-26T02:52:39;101157.66;;;26.60;44.80
61554;BME280;47425;51.976;5.326;2023-06-26T02:55:31;101163.66;;;26.53;44.24
61554;BME280;47425;51.976;5.326;2023-06-26T02:58:23;101163.19;;;26.48;44.98
61554;BME280;47425;51.976;5.326;2023-06-26T03:01:15;101164.81;;;26.39;45.17
61554;BME280;47425;51.976;5.326;2023-06-26T03:04:07;101171.38;;;26.35;44.92
61554;BME280;47425;51.976;5.326;2023-06-26T03:07:00;101173.50;;;26.31;45.47
61554;BME280;47425;51.976;5.326;2023-06-26T03:09:56;101174.72;;;26.27;45.58
61554;BME280;47425;51.976;5.326;2023-06-26T03:16:55;101182.44;;;26.20;45.79
61554;BME280;47425;51.976;5.326;2023-06-26T03:19:48;101179.88;;;26.19;45.78
61554;BME280;47425;51.976;5.326;2023-06-26T03:22:40;101173.28;;;26.11;46.15
61554;BME280;47425;51.976;5.326;2023-06-26T03:25:33;101179.00;;;26.18;45.64
61554;BME280;47425;51.976;5.326;2023-06-26T03:28:24;101168.75;;;26.23;45.37
61554;BME280;47425;51.976;5.326;2023-06-26T03:31:17;101179.56;;;26.33;45.30
61554;BME280;47425;51.976;5.326;2023-06-26T03:34:11;101172.38;;;26.34;45.80
61554;BME280;47425;51.976;5.326;2023-06-26T03:37:04;101181.03;;;26.37;45.29
61554;BME280;47425;51.976;5.326;2023-06-26T03:39:56;101177.84;;;26.43;44.83
61554;BME280;47425;51.976;5.326;2023-06-26T03:42:26;101181.50;;;26.42;45.44
61554;BME280;47425;51.976;5.326;2023-06-26T03:45:18;101178.47;;;26.36;46.08
61554;BME280;47425;51.976;5.326;2023-06-26T03:48:10;101196.28;;;26.37;45.85
61554;BME280;47425;51.976;5.326;2023-06-26T03:51:02;101196.28;;;26.37;45.44
61554;BME280;47425;51.976;5.326;2023-06-26T03:53:53;101201.06;;;26.33;45.43
61554;BME280;47425;51.976;5.326;2023-06-26T03:56:47;101210.22;;;26.30;45.68
61554;BME280;47425;51.976;5.326;2023-06-26T03:59:40;101205.44;;;26.34;45.81
61554;BME280;47425;51.976;5.326;2023-06-26T04:02:32;101215.94;;;26.37;45.77
61554;BME280;47425;51.976;5.326;2023-06-26T04:05:24;101218.63;;;26.37;45.37
61554;BME280;47425;51.976;5.326;2023-06-26T04:08:16;101219.84;;;26.33;45.09
61554;BME280;47425;51.976;5.326;2023-06-26T04:11:08;101214.63;;;26.20;45.94
61554;BME280;47425;51.976;5.326;2023-06-26T04:14:00;101227.06;;;26.33;45.33
61554;BME280;47425;51.976;5.326;2023-06-26T04:16:33;101226.06;;;26.45;45.42
61554;BME280;47425;51.976;5.326;2023-06-26T04:19:00;101213.59;;;26.55;45.41
61554;BME280;47425;51.976;5.326;2023-06-26T04:21:27;101232.38;;;26.55;45.21
61554;BME280;47425;51.976;5.326;2023-06-26T04:24:19;101230.75;;;26.64;44.84
61554;BME280;47425;51.976;5.326;2023-06-26T04:27:12;101234.91;;;26.68;45.13
61554;BME280;47425;51.976;5.326;2023-06-26T04:30:05;101239.06;;;26.61;45.26
61554;BME280;47425;51.976;5.326;2023-06-26T04:32:59;101239.22;;;26.59;44.45
61554;BME280;47425;51.976;5.326;2023-06-26T04:35:52;101239.69;;;26.65;44.81
61554;BME280;47425;51.976;5.326;2023-06-26T04:38:48;101239.06;;;26.61;44.94
61554;BME280;47425;51.976;5.326;2023-06-26T04:41:40;101247.59;;;26.77;44.68
61554;BME280;47425;51.976;5.326;2023-06-26T04:44:32;101253.22;;;27.07;43.44
61554;BME280;47425;51.976;5.326;2023-06-26T04:47:25;101262.19;;;26.96;43.97
61554;BME280;47425;51.976;5.326;2023-06-26T04:50:18;101265.72;;;26.96;43.80
61554;BME280;47425;51.976;5.326;2023-06-26T04:53:11;101275.97;;;27.03;44.06
61554;BME280;47425;51.976;5.326;2023-06-26T04:56:03;101265.91;;;26.84;44.90
61554;BME280;47425;51.976;5.326;2023-06-26T04:58:55;101281.78;;;26.87;44.09
61554;BME280;47425;51.976;5.326;2023-06-26T05:01:47;101280.03;;;26.97;44.00
61554;BME280;47425;51.976;5.326;2023-06-26T05:04:39;101277.72;;;26.92;44.15
61554;BME280;47425;51.976;5.326;2023-06-26T05:07:34;101288.19;;;27.07;43.81
61554;BME280;47425;51.976;5.326;2023-06-26T05:10:26;101296.16;;;27.29;43.50
61554;BME280;47425;51.976;5.326;2023-06-26T05:13:18;101292.22;;;27.34;42.95
61554;BME280;47425;51.976;5.326;2023-06-26T05:15:45;101297.25;;;27.38;43.48
61554;BME280;47425;51.976;5.326;2023-06-26T05:18:49;101295.31;;;27.29;42.08
61554;BME280;47425;51.976;5.326;2023-06-26T05:21:41;101296.16;;;26.97;42.99
61554;BME280;47425;51.976;5.326;2023-06-26T05:24:38;101294.13;;;26.67;43.75
61554;BME280;47425;51.976;5.326;2023-06-26T05:27:32;101311.59;;;26.84;43.90
61554;BME280;47425;51.976;5.326;2023-06-26T05:30:24;101307.19;;;26.94;44.03
61554;BME280;47425;51.976;5.326;2023-06-26T05:32:56;101306.53;;;27.02;43.50
61554;BME280;47425;51.976;5.326;2023-06-26T05:35:28;101312.56;;;26.94;43.37
61554;BME280;47425;51.976;5.326;2023-06-26T05:37:55;101316.44;;;26.90;43.25
61554;BME280;47425;51.976;5.326;2023-06-26T05:40:50;101320.63;;;26.94;43.97
61554;BME280;47425;51.976;5.326;2023-06-26T05:43:42;101330.13;;;26.98;42.98
61554;BME280;47425;51.976;5.326;2023-06-26T05:46:34;101329.47;;;27.06;43.07
61554;BME280;47425;51.976;5.326;2023-06-26T05:49:26;101338.50;;;27.16;43.08
61554;BME280;47425;51.976;5.326;2023-06-26T05:52:18;101339.88;;;27.10;42.45
61554;BME280;47425;51.976;5.326;2023-06-26T05:55:15;101344.38;;;27.10;42.98
61554;BME280;47425;51.976;5.326;2023-06-26T05:58:10;101346.06;;;27.11;43.06
61554;BME280;47425;51.976;5.326;2023-06-26T06:01:02;101345.25;;;27.10;43.21
61554;BME280;47425;51.976;5.326;2023-06-26T06:03:53;101344.97;;;27.13;42.49
61554;BME280;47425;51.976;5.326;2023-06-26T06:06:48;101358.50;;;27.23;42.37
61554;BME280;47425;51.976;5.326;2023-06-26T06:09:40;101367.50;;;26.90;42.87
61554;BME280;47425;51.976;5.326;2023-06-26T06:12:32;101371.44;;;26.63;43.24
61554;BME280;47425;51.976;5.326;2023-06-26T06:15:00;101366.56;;;26.34;43.99
61554;BME280;47425;51.976;5.326;2023-06-26T06:17:52;101369.66;;;25.94;43.81
61554;BME280;47425;51.976;5.326;2023-06-26T06:20:44;101388.19;;;25.97;44.26
61554;BME280;47425;51.976;5.326;2023-06-26T06:23:36;101380.25;;;25.84;45.02
61554;BME280;47425;51.976;5.326;2023-06-26T06:26:29;101377.78;;;26.05;45.36
61554;BME280;47425;51.976;5.326;2023-06-26T06:29:24;101385.19;;;26.13;44.86
61554;BME280;47425;51.976;5.326;2023-06-26T06:32:17;101390.38;;;26.39;44.56
61554;BME280;47425;51.976;5.326;2023-06-26T06:35:10;101395.38;;;26.32;44.80
61554;BME280;47425;51.976;5.326;2023-06-26T06:38:02;101407.94;;;26.54;44.14
61554;BME280;47425;51.976;5.326;2023-06-26T06:40:54;101418.22;;;26.60;43.72
61554;BME280;47425;51.976;5.326;2023-06-26T06:43:48;101421.50;;;26.53;44.55
61554;BME280;47425;51.976;5.326;2023-06-26T06:46:41;101416.50;;;26.59;44.07
61554;BME280;47425;51.976;5.326;2023-06-26T06:49:37;101423.69;;;26.70;44.26
61554;BME280;47425;51.976;5.326;2023-06-26T06:52:29;101436.91;;;26.73;44.18
61554;BME280;47425;51.976;5.326;2023-06-26T06:55:21;101446.19;;;26.92;43.99
61554;BME280;47425;51.976;5.326;2023-06-26T06:58:14;101442.75;;;27.01;42.73
61554;BME280;47425;51.976;5.326;2023-06-26T07:01:07;101444.09;;;27.07;42.78
61554;BME280;47425;51.976;5.326;2023-06-26T07:04:00;101440.56;;;27.06;43.39
61554;BME280;47425;51.976;5.326;2023-06-26T07:06:55;101441.94;;;26.78;42.67
61554;BME280;47425;51.976;5.326;2023-06-26T07:09:49;101446.88;;;26.37;44.16
61554;BME280;47425;51.976;5.326;2023-06-26T07:12:41;101458.59;;;26.59;44.09
61554;BME280;47425;51.976;5.326;2023-06-26T07:15:34;101456.19;;;26.67;43.36
61554;BME280;47425;51.976;5.326;2023-06-26T07:18:25;101465.13;;;26.79;43.67
61554;BME280;47425;51.976;5.326;2023-06-26T07:21:18;101472.31;;;26.67;43.69
61554;BME280;47425;51.976;5.326;2023-06-26T07:24:11;101474.25;;;26.65;43.42
61554;BME280;47425;51.976;5.326;2023-06-26T07:27:03;101476.69;;;26.68;43.26
61554;BME280;47425;51.976;5.326;2023-06-26T07:29:35;101476.38;;;26.73;43.63
61554;BME280;47425;51.976;5.326;2023-06-26T07:32:04;101479.66;;;26.88;43.23
61554;BME280;47425;51.976;5.326;2023-06-26T07:34:30;101471.47;;;26.89;43.22
61554;BME280;47425;51.976;5.326;2023-06-26T07:37:22;101486.03;;;26.75;43.38
61554;BME280;47425;51.976;5.326;2023-06-26T07:40:15;101484.44;;;26.95;43.23
61554;BME280;47425;51.976;5.326;2023-06-26T07:43:09;101494.47;;;27.05;43.21
61554;BME280;47425;51.976;5.326;2023-06-26T07:46:01;101492.72;;;26.92;42.82
61554;BME280;47425;51.976;5.326;2023-06-26T07:48:53;101490.44;;;26.76;43.15
61554;BME280;47425;51.976;5.326;2023-06-26T07:51:45;101494.16;;;26.62;43.95
61554;BME280;47425;51.976;5.326;2023-06-26T07:54:11;101503.56;;;26.57;42.58
61554;BME280;47425;51.976;5.326;2023-06-26T07:56:53;101503.53;;;26.45;42.64
61554;BME280;47425;51.976;5.326;2023-06-26T07:59:21;101508.63;;;26.26;43.71
61554;BME280;47425;51.976;5.326;2023-06-26T08:01:53;101509.63;;;26.36;43.41
61554;BME280;47425;51.976;5.326;2023-06-26T08:04:46;101513.72;;;26.65;43.50
61554;BME280;47425;51.976;5.326;2023-06-26T08:07:38;101506.53;;;26.99;42.21
61554;BME280;47425;51.976;5.326;2023-06-26T08:10:32;101503.00;;;26.99;42.83
61554;BME280;47425;51.976;5.326;2023-06-26T08:13:26;101521.09;;;27.08;42.14
61554;BME280;47425;51.976;5.326;2023-06-26T08:16:18;101516.19;;;27.02;42.43
61554;BME280;47425;51.976;5.326;2023-06-26T08:19:11;101515.22;;;27.14;42.14
61554;BME280;47425;51.976;5.326;2023-06-26T08:22:03;101521.81;;;27.44;40.84
61554;BME280;47425;51.976;5.326;2023-06-26T08:24:56;101524.88;;;27.39;40.62
61554;BME280;47425;51.976;5.326;2023-06-26T08:27:48;101525.88;;;27.38;41.13
61554;BME280;47425;51.976;5.326;2023-06-26T08:30:44;101520.94;;;27.55;41.26
61554;BME280;47425;51.976;5.326;2023-06-26T08:33:37;101523.41;;;27.46;40.67
61554;BME280;47425;51.976;5.326;2023-06-26T08:36:29;101528.53;;;27.50;41.54
61554;BME280;47425;51.976;5.326;2023-06-26T08:39:21;101522.31;;;27.38;41.28
61554;BME280;47425;51.976;5.326;2023-06-26T08:42:13;101523.88;;;27.52;40.47
61554;BME280;47425;51.976;5.326;2023-06-26T08:45:05;101529.00;;;27.43;40.38
61554;BME280;47425;51.976;5.326;2023-06-26T08:48:04;101528.66;;;27.37;40.48
61554;BME280;47425;51.976;5.326;2023-06-26T08:51:01;101528.91;;;27.45;40.89
61554;BME280;47425;51.976;5.326;2023-06-26T08:53:57;101546.47;;;27.60;39.96
61554;BME280;47425;51.976;5.326;2023-06-26T08:56:33;101541.94;;;27.61;39.70
61554;BME280;47425;51.976;5.326;2023-06-26T08:59:27;101539.28;;;27.27;39.68
61554;BME280;47425;51.976;5.326;2023-06-26T09:02:20;101564.22;;;27.18;40.43
61554;BME280;47425;51.976;5.326;2023-06-26T09:04:50;101556.66;;;27.11;40.66
61554;BME280;47425;51.976;5.326;2023-06-26T09:07:42;101558.47;;;27.34;41.07
61554;BME280;47425;51.976;5.326;2023-06-26T09:10:34;101560.53;;;27.30;40.67
61554;BME280;47425;51.976;5.326;2023-06-26T09:13:28;101569.59;;;27.18;41.43
61554;BME280;47425;51.976;5.326;2023-06-26T09:16:24;101569.81;;;27.03;39.53
61554;BME280;47425;51.976;5.326;2023-06-26T09:19:17;101583.88;;;27.07;41.26
61554;BME280;47425;51.976;5.326;2023-06-26T09:21:55;101579.25;;;27.09;41.41
61554;BME280;47425;51.976;5.326;2023-06-26T09:24:22;101581.19;;;27.07;40.11
61554;BME280;47425;51.976;5.326;2023-06-26T09:26:49;101581.06;;;26.97;41.08
61554;BME280;47425;51.976;5.326;2023-06-26T09:29:41;101579.50;;;27.17;41.39
61554;BME280;47425;51.976;5.326;2023-06-26T09:32:34;101592.56;;;27.22;40.97
61554;BME280;47425;51.976;5.326;2023-06-26T09:35:31;101579.13;;;27.22;39.28
61554;BME280;47425;51.976;5.326;2023-06-26T09:38:24;101593.94;;;27.27;39.17
61554;BME280;47425;51.976;5.326;2023-06-26T09:41:17;101591.97;;;27.18;40.56
61554;BME280;47425;51.976;5.326;2023-06-26T09:44:11;101599.78;;;27.33;38.97
61554;BME280;47425;51.976;5.326;2023-06-26T09:46:37;101593.66;;;27.19;39.62
61554;BME280;47425;51.976;5.326;2023-06-26T09:49:05;101609.31;;;27.03;38.76
61554;BME280;47425;51.976;5.326;2023-06-26T09:51:33;101604.66;;;26.58;39.11
61554;BME280;47425;51.976;5.326;2023-06-26T09:54:29;101611.00;;;26.92;40.18
61554;BME280;47425;51.976;5.326;2023-06-26T09:57:22;101611.00;;;26.92;39.58
61554;BME280;47425;51.976;5.326;2023-06-26T10:00:14;101613.47;;;27.07;40.02
61554;BME280;47425;51.976;5.326;2023-06-26T10:03:07;101615.91;;;26.99;38.48
61554;BME280;47425;51.976;5.326;2023-06-26T10:06:07;101618.72;;;27.08;40.06
61554;BME280;47425;51.976;5.326;2023-06-26T10:09:01;101629.00;;;27.15;39.29
61554;BME280;47425;51.976;5.326;2023-06-26T10:11:34;101629.72;;;27.17;38.57
61554;BME280;47425;51.976;5.326;2023-06-26T10:14:34;101629.88;;;27.26;40.38
61554;BME280;47425;51.976;5.326;2023-06-26T10:17:28;101640.31;;;27.42;39.12
61554;BME280;47425;51.976;5.326;2023-06-26T10:20:22;101638.44;;;27.43;37.45
61554;BME280;47425;51.976;5.326;2023-06-26T10:23:14;101645.00;;;27.16;36.61
61554;BME280;47425;51.976;5.326;2023-06-26T10:26:08;101633.50;;;27.03;36.89
61554;BME280;47425;51.976;5.326;2023-06-26T10:29:03;101642.03;;;26.96;38.71
61554;BME280;47425;51.976;5.326;2023-06-26T10:31:58;101640.59;;;27.15;38.03
61554;BME280;47425;51.976;5.326;2023-06-26T10:34:50;101658.34;;;27.29;37.75
61554;BME280;47425;51.976;5.326;2023-06-26T10:37:47;101660.94;;;27.42;38.36
61554;BME280;47425;51.976;5.326;2023-06-26T10:40:43;101652.16;;;27.40;38.37
61554;BME280;47425;51.976;5.326;2023-06-26T10:43:40;101652.44;;;27.12;38.30
61554;BME280;47425;51.976;5.326;2023-06-26T10:46:48;101636.19;;;27.03;39.52
61554;BME280;47425;51.976;5.326;2023-06-26T10:49:46;101637.56;;;27.20;37.67
61554;BME280;47425;51.976;5.326;2023-06-26T10:52:39;101657.13;;;27.33;38.59
61554;BME280;47425;51.976;5.326;2023-06-26T10:55:31;101651.50;;;27.36;39.14
61554;BME280;47425;51.976;5.326;2023-06-26T10:58:34;101667.66;;;27.48;37.75
61554;BME280;47425;51.976;5.326;2023-06-26T11:01:41;101662.03;;;27.62;37.48
61554;BME280;47425;51.976;5.326;2023-06-26T11:04:39;101657.84;;;27.35;38.67
61554;BME280;47425;51.976;5.326;2023-06-26T11:07:33;101674.16;;;27.45;37.94
61554;BME280;47425;51.976;5.326;2023-06-26T11:10:27;101684.09;;;27.56;37.00
61554;BME280;47425;51.976;5.326;2023-06-26T11:13:19;101680.28;;;27.47;38.09
61554;BME280;47425;51.976;5.326;2023-06-26T11:16:11;101665.22;;;27.44;37.26
61554;BME280;47425;51.976;5.326;2023-06-26T11:19:04;101678.81;;;27.66;37.94
61554;BME280;47425;51.976;5.326;2023-06-26T11:22:04;101686.50;;;27.82;37.53
61554;BME280;47425;51.976;5.326;2023-06-26T11:24:59;101698.47;;;27.89;35.33
61554;BME280;47425;51.976;5.326;2023-06-26T11:27:53;101694.09;;;27.76;36.67
61554;BME280;47425;51.976;5.326;2023-06-26T11:30:44;101712.81;;;27.67;35.27
61554;BME280;47425;51.976;5.326;2023-06-26T11:33:11;101708.03;;;27.70;36.02
61554;BME280;47425;51.976;5.326;2023-06-26T11:35:45;101691.91;;;27.59;36.69
61554;BME280;47425;51.976;5.326;2023-06-26T11:38:15;101693.97;;;27.55;36.58
61554;BME280;47425;51.976;5.326;2023-06-26T11:40:42;101703.50;;;27.48;37.75
61554;BME280;47425;51.976;5.326;2023-06-26T11:43:34;101709.28;;;27.77;37.89
61554;BME280;47425;51.976;5.326;2023-06-26T11:46:26;101719.78;;;27.69;37.87
61554;BME280;47425;51.976;5.326;2023-06-26T11:49:19;101727.50;;;27.74;37.27
61554;BME280;47425;51.976;5.326;2023-06-26T11:52:15;101734.47;;;27.76;35.73
61554;BME280;47425;51.976;5.326;2023-06-26T11:55:08;101727.09;;;27.44;36.38
61554;BME280;47425;51.976;5.326;2023-06-26T11:58:01;101738.81;;;27.43;37.90
61554;BME280;47425;51.976;5.326;2023-06-26T12:00:31;101741.31;;;27.58;37.91
61554;BME280;47425;51.976;5.326;2023-06-26T12:02:58;101742.03;;;27.49;35.93
61554;BME280;47425;51.976;5.326;2023-06-26T12:05:25;101752.41;;;27.42;35.74
61554;BME280;47425;51.976;5.326;2023-06-26T12:08:18;101762.56;;;27.50;36.99
61554;BME280;47425;51.976;5.326;2023-06-26T12:11:12;101767.56;;;27.54;36.31
61554;BME280;47425;51.976;5.326;2023-06-26T12:14:05;101751.81;;;27.38;33.26
61554;BME280;47425;51.976;5.326;2023-06-26T12:17:04;101772.66;;;27.35;35.34
61554;BME280;47425;51.976;5.326;2023-06-26T12:19:56;101760.84;;;27.37;33.33
61554;BME280;47425;51.976;5.326;2023-06-26T12:22:48;101766.34;;;27.47;33.09
61554;BME280;47425;51.976;5.326;2023-06-26T12:25:22;101768.31;;;27.09;34.05
61554;BME280;47425;51.976;5.326;2023-06-26T12:28:17;101774.00;;;27.29;34.88
61554;BME280;47425;51.976;5.326;2023-06-26T12:31:13;101763.53;;;27.49;35.60
61554;BME280;47425;51.976;5.326;2023-06-26T12:34:09;101762.56;;;27.61;34.89
61554;BME280;47425;51.976;5.326;2023-06-26T12:37:02;101759.13;;;27.48;34.77
61554;BME280;47425;51.976;5.326;2023-06-26T12:39:56;101768.13;;;27.71;33.88
61554;BME280;47425;51.976;5.326;2023-06-26T12:42:53;101779.25;;;27.77;35.65
61554;BME280;47425;51.976;5.326;2023-06-26T12:45:48;101774.22;;;27.95;36.15
61554;BME280;47425;51.976;5.326;2023-06-26T12:48:41;101777.03;;;27.94;34.03
61554;BME280;47425;51.976;5.326;2023-06-26T12:51:36;101775.22;;;27.83;33.85
61554;BME280;47425;51.976;5.326;2023-06-26T12:54:30;101775.22;;;27.83;36.08
61554;BME280;47425;51.976;5.326;2023-06-26T12:57:22;101782.41;;;27.71;31.69
61554;BME280;47425;51.976;5.326;2023-06-26T13:00:16;101784.50;;;27.32;33.61
61554;BME280;47425;51.976;5.326;2023-06-26T13:03:08;101791.28;;;27.38;35.21
61554;BME280;47425;51.976;5.326;2023-06-26T13:06:00;101777.16;;;27.58;35.46
61554;BME280;47425;51.976;5.326;2023-06-26T13:08:52;101785.59;;;27.65;35.04
61554;BME280;47425;51.976;5.326;2023-06-26T13:11:46;101787.91;;;27.70;33.67
61554;BME280;47425;51.976;5.326;2023-06-26T13:14:39;101790.38;;;27.84;32.84
61554;BME280;47425;51.976;5.326;2023-06-26T13:17:32;101795.03;;;27.71;32.90
61554;BME280;47425;51.976;5.326;2023-06-26T13:20:27;101783.38;;;27.70;33.42
61554;BME280;47425;51.976;5.326;2023-06-26T13:23:19;101793.81;;;27.75;33.81
61554;BME280;47425;51.976;5.326;2023-06-26T13:26:11;101801.25;;;27.60;33.33
61554;BME280;47425;51.976;5.326;2023-06-26T13:29:05;101790.63;;;27.70;34.92
61554;BME280;47425;51.976;5.326;2023-06-26T13:31:57;101797.59;;;27.84;33.72
61554;BME280;47425;51.976;5.326;2023-06-26T13:34:51;101795.03;;;27.93;35.30
61554;BME280;47425;51.976;5.326;2023-06-26T13:37:43;101791.97;;;27.98;32.76
61554;BME280;47425;51.976;5.326;2023-06-26T13:40:35;101790.00;;;27.77;31.83
61554;BME280;47425;51.976;5.326;2023-06-26T13:43:28;101793.31;;;27.81;33.47
61554;BME280;47425;51.976;5.326;2023-06-26T13:46:20;101793.09;;;27.84;32.90
61554;BME280;47425;51.976;5.326;2023-06-26T13:49:12;101802.03;;;28.07;33.04
61554;BME280;47425;51.976;5.326;2023-06-26T13:52:06;101801.41;;;28.26;33.13
61554;BME280;47425;51.976;5.326;2023-06-26T13:58:15;101795.53;;;27.87;30.84
61554;BME280;47425;51.976;5.326;2023-06-26T14:00:41;101809.81;;;27.65;34.74
61554;BME280;47425;51.976;5.326;2023-06-26T14:03:10;101815.84;;;27.80;33.89
61554;BME280;47425;51.976;5.326;2023-06-26T14:06:02;101815.34;;;27.86;33.54
61554;BME280;47425;51.976;5.326;2023-06-26T14:08:56;101809.06;;;27.63;32.67
61554;BME280;47425;51.976;5.326;2023-06-26T14:11:48;101824.59;;;27.59;33.89
61554;BME280;47425;51.976;5.326;2023-06-26T14:14:40;101825.22;;;27.74;33.85
61554;BME280;47425;51.976;5.326;2023-06-26T14:17:32;101810.66;;;27.66;33.75
61554;BME280;47425;51.976;5.326;2023-06-26T14:20:24;101832.00;;;27.44;34.97
61554;BME280;47425;51.976;5.326;2023-06-26T14:23:16;101812.84;;;27.60;33.62
61554;BME280;47425;51.976;5.326;2023-06-26T14:26:09;101837.56;;;27.66;33.16
61554;BME280;47425;51.976;5.326;2023-06-26T14:29:02;101845.50;;;27.56;35.06
61554;BME280;47425;51.976;5.326;2023-06-26T14:31:57;101838.22;;;27.69;34.19
61554;BME280;47425;51.976;5.326;2023-06-26T14:34:49;101831.34;;;27.76;33.44
61554;BME280;47425;51.976;5.326;2023-06-26T14:37:41;101833.09;;;27.77;35.35
61554;BME280;47425;51.976;5.326;2023-06-26T14:40:34;101832.91;;;27.68;34.66
61554;BME280;47425;51.976;5.326;2023-06-26T14:43:27;101837.22;;;27.70;34.22
61554;BME280;47425;51.976;5.326;2023-06-26T14:46:19;101824.50;;;27.72;32.64
61554;BME280;47425;51.976;5.326;2023-06-26T14:49:11;101843.97;;;27.76;35.17
61554;BME280;47425;51.976;5.326;2023-06-26T14:52:03;101831.63;;;27.96;34.27
61554;BME280;47425;51.976;5.326;2023-06-26T14:54:56;101834.47;;;28.06;34.63
61554;BME280;47425;51.976;5.326;2023-06-26T14:57:49;101819.38;;;27.92;32.08